sensor_id;sensor_type;location;lat;lon;timestamp;temperature;humidity
7972;DHT22;4031;49.758;6.120;2022-12-19T00:01:20;-2.00;99.90
7972;DHT22;4031;49.758;6.120;2022-12-19T00:03:58;-1.90;99.90
7972;DHT22;4031;49.758;6.120;2022-12-19T00:06:26;-1.90;99.90
7972;DHT22;4031;49.758;6.120;2022-12-19T00:08:53;-1.90;99.90
7972;DHT22;4031;49.758;6.120;2022-12-19T00:11:21;-1.90;99.90
7972;DHT22;4031;49.758;6.120;2022-12-19T00:13:48;-1.90;99.90
7972;DHT22;4031;49.758;6.120;2022-12-19T00:16:19;-1.90;99.90
7972;DHT22;4031;49.758;6.120;2022-12-19T00:18:47;-1.90;99.90
7972;DHT22;4031;49.758;6.120;2022-12-19T00:21:19;-1.80;99.90
7972;DHT22;4031;49.758;6.120;2022-12-19T00:23:45;-1.80;99.90
7972;DHT22;4031;49.758;6.120;2022-12-19T00:26:24;-1.70;99.90
7972;DHT22;4031;49.758;6.120;2022-12-19T00:28:55;-1.80;99.90
7972;DHT22;4031;49.758;6.120;2022-12-19T00:31:24;-1.80;99.90
7972;DHT22;4031;49.758;6.120;2022-12-19T00:33:51;-1.80;99.90
7972;DHT22;4031;49.758;6.120;2022-12-19T00:36:19;-1.80;99.90
7972;DHT22;4031;49.758;6.120;2022-12-19T00:38:47;-1.80;99.90
7972;DHT22;4031;49.758;6.120;2022-12-19T00:41:19;-1.70;99.90
7972;DHT22;4031;49.758;6.120;2022-12-19T00:44:00;-1.70;99.90
7972;DHT22;4031;49.758;6.120;2022-12-19T00:46:28;-1.70;99.90
7972;DHT22;4031;49.758;6.120;2022-12-19T00:48:55;-1.80;99.90
7972;DHT22;4031;49.758;6.120;2022-12-19T00:51:23;-1.70;99.90
7972;DHT22;4031;49.758;6.120;2022-12-19T00:53:52;-1.70;99.90
7972;DHT22;4031;49.758;6.120;2022-12-19T00:56:29;-1.70;99.90
7972;DHT22;4031;49.758;6.120;2022-12-19T00:58:56;-1.70;99.90
7972;DHT22;4031;49.758;6.120;2022-12-19T01:01:23;-1.70;99.90
7972;DHT22;4031;49.758;6.120;2022-12-19T01:03:51;-1.80;99.90
7972;DHT22;4031;49.758;6.120;2022-12-19T01:06:17;-1.80;99.90
7972;DHT22;4031;49.758;6.120;2022-12-19T01:08:43;-1.80;99.90
7972;DHT22;4031;49.758;6.120;2022-12-19T01:11:08;-1.80;99.90
7972;DHT22;4031;49.758;6.120;2022-12-19T01:13:36;-1.90;99.90
7972;DHT22;4031;49.758;6.120;2022-12-19T01:16:11;-1.90;99.90
7972;DHT22;4031;49.758;6.120;2022-12-19T01:18:38;-2.00;99.90
7972;DHT22;4031;49.758;6.120;2022-12-19T01:21:07;-2.00;99.90
7972;DHT22;4031;49.758;6.120;2022-12-19T01:23:34;-2.00;99.90
7972;DHT22;4031;49.758;6.120;2022-12-19T01:26:00;-1.90;99.90
7972;DHT22;4031;49.758;6.120;2022-12-19T01:28:26;-1.90;99.90
7972;DHT22;4031;49.758;6.120;2022-12-19T01:30:55;-1.80;99.90
7972;DHT22;4031;49.758;6.120;2022-12-19T01:33:21;-1.80;99.90
7972;DHT22;4031;49.758;6.120;2022-12-19T01:35:47;-1.70;99.90
7972;DHT22;4031;49.758;6.120;2022-12-19T01:38:18;-1.60;99.90
7972;DHT22;4031;49.758;6.120;2022-12-19T01:40:53;-1.60;99.90
7972;DHT22;4031;49.758;6.120;2022-12-19T01:43:20;-1.60;99.90
7972;DHT22;4031;49.758;6.120;2022-12-19T01:45:50;-1.60;99.90
7972;DHT22;4031;49.758;6.120;2022-12-19T01:48:32;-1.50;99.90
7972;DHT22;4031;49.758;6.120;2022-12-19T01:51:24;-1.50;99.90
7972;DHT22;4031;49.758;6.120;2022-12-19T01:53:56;-1.50;99.90
7972;DHT22;4031;49.758;6.120;2022-12-19T01:56:32;-1.50;99.90
7972;DHT22;4031;49.758;6.120;2022-12-19T01:59:02;-1.50;99.90
7972;DHT22;4031;49.758;6.120;2022-12-19T02:01:32;-1.50;99.90
7972;DHT22;4031;49.758;6.120;2022-12-19T02:03:59;-1.50;99.90
7972;DHT22;4031;49.758;6.120;2022-12-19T02:06:26;-1.50;99.90
7972;DHT22;4031;49.758;6.120;2022-12-19T02:08:54;-1.50;99.90
7972;DHT22;4031;49.758;6.120;2022-12-19T02:11:20;-1.40;99.90
7972;DHT22;4031;49.758;6.120;2022-12-19T02:13:46;-1.40;99.90
7972;DHT22;4031;49.758;6.120;2022-12-19T02:16:53;-1.40;99.90
7972;DHT22;4031;49.758;6.120;2022-12-19T02:25:47;-1.40;99.90
7972;DHT22;4031;49.758;6.120;2022-12-19T02:37:48;-1.30;99.90
7972;DHT22;4031;49.758;6.120;2022-12-19T02:40:27;-1.30;99.90
7972;DHT22;4031;49.758;6.120;2022-12-19T02:42:59;-1.30;99.90
7972;DHT22;4031;49.758;6.120;2022-12-19T02:45:36;-1.20;99.90
7972;DHT22;4031;49.758;6.120;2022-12-19T02:48:04;-1.20;99.90
7972;DHT22;4031;49.758;6.120;2022-12-19T02:53:03;-1.10;99.90
7972;DHT22;4031;49.758;6.120;2022-12-19T02:55:30;-1.10;99.90
7972;DHT22;4031;49.758;6.120;2022-12-19T03:01:46;-0.90;99.90
7972;DHT22;4031;49.758;6.120;2022-12-19T03:07:41;-0.70;99.90
7972;DHT22;4031;49.758;6.120;2022-12-19T03:12:49;-0.60;99.90
7972;DHT22;4031;49.758;6.120;2022-12-19T03:15:19;-0.60;99.90
7972;DHT22;4031;49.758;6.120;2022-12-19T03:17:45;-0.60;99.90
7972;DHT22;4031;49.758;6.120;2022-12-19T03:20:27;-0.50;99.90
7972;DHT22;4031;49.758;6.120;2022-12-19T03:23:04;-0.40;99.90
7972;DHT22;4031;49.758;6.120;2022-12-19T03:25:31;-0.30;99.90
7972;DHT22;4031;49.758;6.120;2022-12-19T03:28:00;-0.20;99.90
7972;DHT22;4031;49.758;6.120;2022-12-19T03:30:30;-0.20;99.90
7972;DHT22;4031;49.758;6.120;2022-12-19T03:32:57;-0.20;99.90
7972;DHT22;4031;49.758;6.120;2022-12-19T03:35:28;-0.10;99.90
7972;DHT22;4031;49.758;6.120;2022-12-19T03:37:56;-0.10;99.90
7972;DHT22;4031;49.758;6.120;2022-12-19T03:40:24;0.00;99.90
7972;DHT22;4031;49.758;6.120;2022-12-19T03:42:58;0.10;99.90
7972;DHT22;4031;49.758;6.120;2022-12-19T03:45:49;0.10;99.90
7972;DHT22;4031;49.758;6.120;2022-12-19T03:54:00;0.30;99.90
7972;DHT22;4031;49.758;6.120;2022-12-19T03:59:06;0.30;99.90
7972;DHT22;4031;49.758;6.120;2022-12-19T04:01:34;0.40;99.90
7972;DHT22;4031;49.758;6.120;2022-12-19T04:04:02;0.40;99.90
7972;DHT22;4031;49.758;6.120;2022-12-19T04:06:29;0.40;99.90
7972;DHT22;4031;49.758;6.120;2022-12-19T04:08:57;0.40;99.90
7972;DHT22;4031;49.758;6.120;2022-12-19T04:11:24;0.40;99.90
7972;DHT22;4031;49.758;6.120;2022-12-19T04:14:01;0.40;99.90
7972;DHT22;4031;49.758;6.120;2022-12-19T04:16:50;0.50;99.90
7972;DHT22;4031;49.758;6.120;2022-12-19T04:19:39;0.50;99.90
7972;DHT22;4031;49.758;6.120;2022-12-19T04:22:15;0.50;99.90
7972;DHT22;4031;49.758;6.120;2022-12-19T04:24:46;0.60;99.90
7972;DHT22;4031;49.758;6.120;2022-12-19T04:27:13;0.60;99.90
7972;DHT22;4031;49.758;6.120;2022-12-19T04:29:40;0.60;99.90
7972;DHT22;4031;49.758;6.120;2022-12-19T04:32:07;0.60;99.90
7972;DHT22;4031;49.758;6.120;2022-12-19T04:34:34;0.60;99.90
7972;DHT22;4031;49.758;6.120;2022-12-19T04:37:01;0.60;99.90
7972;DHT22;4031;49.758;6.120;2022-12-19T04:39:28;0.70;99.90
7972;DHT22;4031;49.758;6.120;2022-12-19T04:41:53;0.70;99.90
7972;DHT22;4031;49.758;6.120;2022-12-19T04:44:19;0.70;99.90
7972;DHT22;4031;49.758;6.120;2022-12-19T04:46:45;0.70;99.90
7972;DHT22;4031;49.758;6.120;2022-12-19T04:49:11;0.70;99.90
7972;DHT22;4031;49.758;6.120;2022-12-19T04:51:37;0.60;99.90
7972;DHT22;4031;49.758;6.120;2022-12-19T04:54:02;0.60;99.90
7972;DHT22;4031;49.758;6.120;2022-12-19T04:56:28;0.60;99.90
7972;DHT22;4031;49.758;6.120;2022-12-19T04:58:58;0.60;99.90
7972;DHT22;4031;49.758;6.120;2022-12-19T05:01:24;0.50;99.90
7972;DHT22;4031;49.758;6.120;2022-12-19T05:03:50;0.60;99.90
7972;DHT22;4031;49.758;6.120;2022-12-19T05:06:16;0.60;99.90
7972;DHT22;4031;49.758;6.120;2022-12-19T05:08:42;0.80;99.90
7972;DHT22;4031;49.758;6.120;2022-12-19T05:11:11;0.70;99.90
7972;DHT22;4031;49.758;6.120;2022-12-19T05:13:38;0.70;99.90
7972;DHT22;4031;49.758;6.120;2022-12-19T05:16:09;0.70;99.90
7972;DHT22;4031;49.758;6.120;2022-12-19T05:18:36;0.80;99.90
7972;DHT22;4031;49.758;6.120;2022-12-19T05:21:03;0.80;99.90
7972;DHT22;4031;49.758;6.120;2022-12-19T05:23:29;0.80;99.90
7972;DHT22;4031;49.758;6.120;2022-12-19T05:26:00;0.70;99.90
7972;DHT22;4031;49.758;6.120;2022-12-19T05:28:26;0.70;99.90
7972;DHT22;4031;49.758;6.120;2022-12-19T05:31:02;0.60;99.90
7972;DHT22;4031;49.758;6.120;2022-12-19T05:33:31;0.60;99.90
7972;DHT22;4031;49.758;6.120;2022-12-19T05:35:57;0.50;99.90
7972;DHT22;4031;49.758;6.120;2022-12-19T05:38:24;0.40;99.90
7972;DHT22;4031;49.758;6.120;2022-12-19T05:40:50;0.40;99.90
7972;DHT22;4031;49.758;6.120;2022-12-19T05:43:16;0.50;99.90
7972;DHT22;4031;49.758;6.120;2022-12-19T05:45:42;0.50;99.90
7972;DHT22;4031;49.758;6.120;2022-12-19T05:48:07;0.60;99.90
7972;DHT22;4031;49.758;6.120;2022-12-19T05:50:33;0.70;99.90
7972;DHT22;4031;49.758;6.120;2022-12-19T05:52:59;0.80;99.90
7972;DHT22;4031;49.758;6.120;2022-12-19T05:55:24;0.90;99.90
7972;DHT22;4031;49.758;6.120;2022-12-19T05:57:50;0.90;99.90
7972;DHT22;4031;49.758;6.120;2022-12-19T06:00:16;0.90;99.90
7972;DHT22;4031;49.758;6.120;2022-12-19T06:02:44;0.80;99.90
7972;DHT22;4031;49.758;6.120;2022-12-19T06:05:10;0.80;99.90
7972;DHT22;4031;49.758;6.120;2022-12-19T06:07:36;0.90;99.90
7972;DHT22;4031;49.758;6.120;2022-12-19T06:10:02;0.90;99.90
7972;DHT22;4031;49.758;6.120;2022-12-19T06:12:28;0.90;99.90
7972;DHT22;4031;49.758;6.120;2022-12-19T06:14:53;1.10;99.90
7972;DHT22;4031;49.758;6.120;2022-12-19T06:17:19;1.30;99.90
7972;DHT22;4031;49.758;6.120;2022-12-19T06:19:45;1.40;99.90
7972;DHT22;4031;49.758;6.120;2022-12-19T06:22:10;1.40;99.90
7972;DHT22;4031;49.758;6.120;2022-12-19T06:24:36;1.50;99.90
7972;DHT22;4031;49.758;6.120;2022-12-19T06:27:02;1.50;99.90
7972;DHT22;4031;49.758;6.120;2022-12-19T06:29:27;1.60;99.90
7972;DHT22;4031;49.758;6.120;2022-12-19T06:31:53;1.60;99.90
7972;DHT22;4031;49.758;6.120;2022-12-19T06:34:19;1.70;99.90
7972;DHT22;4031;49.758;6.120;2022-12-19T06:36:45;1.70;99.90
7972;DHT22;4031;49.758;6.120;2022-12-19T06:39:14;1.80;99.90
7972;DHT22;4031;49.758;6.120;2022-12-19T06:41:41;1.80;99.90
7972;DHT22;4031;49.758;6.120;2022-12-19T06:44:25;1.80;99.90
7972;DHT22;4031;49.758;6.120;2022-12-19T06:46:52;1.70;99.90
7972;DHT22;4031;49.758;6.120;2022-12-19T06:49:18;1.70;99.90
7972;DHT22;4031;49.758;6.120;2022-12-19T06:51:44;1.70;99.90
7972;DHT22;4031;49.758;6.120;2022-12-19T06:54:11;1.70;99.90
7972;DHT22;4031;49.758;6.120;2022-12-19T06:56:39;1.60;99.90
7972;DHT22;4031;49.758;6.120;2022-12-19T06:59:08;1.60;99.90
7972;DHT22;4031;49.758;6.120;2022-12-19T07:02:02;1.50;99.90
7972;DHT22;4031;49.758;6.120;2022-12-19T07:04:46;1.40;99.90
7972;DHT22;4031;49.758;6.120;2022-12-19T07:07:14;1.40;99.90
7972;DHT22;4031;49.758;6.120;2022-12-19T07:09:40;1.40;99.90
7972;DHT22;4031;49.758;6.120;2022-12-19T07:12:06;1.40;99.90
7972;DHT22;4031;49.758;6.120;2022-12-19T07:14:32;1.40;99.90
7972;DHT22;4031;49.758;6.120;2022-12-19T07:16:59;1.40;99.90
7972;DHT22;4031;49.758;6.120;2022-12-19T07:19:26;1.40;99.90
7972;DHT22;4031;49.758;6.120;2022-12-19T07:21:53;1.50;99.90
7972;DHT22;4031;49.758;6.120;2022-12-19T07:24:20;1.50;99.90
7972;DHT22;4031;49.758;6.120;2022-12-19T07:26:45;1.40;99.90
7972;DHT22;4031;49.758;6.120;2022-12-19T07:29:12;1.40;99.90
7972;DHT22;4031;49.758;6.120;2022-12-19T07:31:38;1.40;99.90
7972;DHT22;4031;49.758;6.120;2022-12-19T07:34:04;1.30;99.90
7972;DHT22;4031;49.758;6.120;2022-12-19T07:36:30;1.30;99.90
7972;DHT22;4031;49.758;6.120;2022-12-19T07:38:55;1.30;99.90
7972;DHT22;4031;49.758;6.120;2022-12-19T07:41:21;1.20;99.90
7972;DHT22;4031;49.758;6.120;2022-12-19T07:43:47;1.10;99.90
7972;DHT22;4031;49.758;6.120;2022-12-19T07:46:13;1.10;99.90
7972;DHT22;4031;49.758;6.120;2022-12-19T07:48:38;1.00;99.90
7972;DHT22;4031;49.758;6.120;2022-12-19T07:51:04;1.00;99.90
7972;DHT22;4031;49.758;6.120;2022-12-19T07:53:30;1.00;99.90
7972;DHT22;4031;49.758;6.120;2022-12-19T07:55:56;1.00;99.90
7972;DHT22;4031;49.758;6.120;2022-12-19T07:58:22;1.00;99.90
7972;DHT22;4031;49.758;6.120;2022-12-19T08:00:58;1.00;99.90
7972;DHT22;4031;49.758;6.120;2022-12-19T08:03:25;0.90;99.90
7972;DHT22;4031;49.758;6.120;2022-12-19T08:06:03;0.80;99.90
7972;DHT22;4031;49.758;6.120;2022-12-19T08:08:30;0.80;99.90
7972;DHT22;4031;49.758;6.120;2022-12-19T08:11:08;0.70;99.90
7972;DHT22;4031;49.758;6.120;2022-12-19T08:13:36;0.70;99.90
7972;DHT22;4031;49.758;6.120;2022-12-19T08:16:02;0.70;99.90
7972;DHT22;4031;49.758;6.120;2022-12-19T08:18:28;0.70;99.90
7972;DHT22;4031;49.758;6.120;2022-12-19T08:20:54;0.70;99.90
7972;DHT22;4031;49.758;6.120;2022-12-19T08:23:19;0.70;99.90
7972;DHT22;4031;49.758;6.120;2022-12-19T08:25:45;0.70;99.90
7972;DHT22;4031;49.758;6.120;2022-12-19T08:28:11;0.70;99.90
7972;DHT22;4031;49.758;6.120;2022-12-19T08:30:40;0.80;99.90
7972;DHT22;4031;49.758;6.120;2022-12-19T08:33:06;0.80;99.90
7972;DHT22;4031;49.758;6.120;2022-12-19T08:35:32;0.80;99.90
7972;DHT22;4031;49.758;6.120;2022-12-19T08:37:59;0.90;99.90
7972;DHT22;4031;49.758;6.120;2022-12-19T08:40:25;0.90;99.90
7972;DHT22;4031;49.758;6.120;2022-12-19T08:42:51;0.90;99.90
7972;DHT22;4031;49.758;6.120;2022-12-19T08:45:16;0.90;99.90
7972;DHT22;4031;49.758;6.120;2022-12-19T08:47:43;0.90;99.90
7972;DHT22;4031;49.758;6.120;2022-12-19T08:50:10;1.00;99.90
7972;DHT22;4031;49.758;6.120;2022-12-19T08:52:37;1.00;99.90
7972;DHT22;4031;49.758;6.120;2022-12-19T08:55:03;1.00;99.90
7972;DHT22;4031;49.758;6.120;2022-12-19T08:57:29;1.00;99.90
7972;DHT22;4031;49.758;6.120;2022-12-19T08:59:54;1.00;99.90
7972;DHT22;4031;49.758;6.120;2022-12-19T09:02:20;1.00;99.90
7972;DHT22;4031;49.758;6.120;2022-12-19T09:04:46;1.00;99.90
7972;DHT22;4031;49.758;6.120;2022-12-19T09:07:12;1.10;99.90
7972;DHT22;4031;49.758;6.120;2022-12-19T09:09:38;1.10;99.90
7972;DHT22;4031;49.758;6.120;2022-12-19T09:12:04;1.10;99.90
7972;DHT22;4031;49.758;6.120;2022-12-19T09:14:33;1.20;99.90
7972;DHT22;4031;49.758;6.120;2022-12-19T09:17:00;1.30;99.90
7972;DHT22;4031;49.758;6.120;2022-12-19T09:19:26;1.30;99.90
7972;DHT22;4031;49.758;6.120;2022-12-19T09:21:52;1.30;99.90
7972;DHT22;4031;49.758;6.120;2022-12-19T09:24:17;1.30;99.90
7972;DHT22;4031;49.758;6.120;2022-12-19T09:26:43;1.30;99.90
7972;DHT22;4031;49.758;6.120;2022-12-19T09:29:10;1.40;99.90
7972;DHT22;4031;49.758;6.120;2022-12-19T09:31:36;1.40;99.90
7972;DHT22;4031;49.758;6.120;2022-12-19T09:34:02;1.50;99.90
7972;DHT22;4031;49.758;6.120;2022-12-19T09:36:29;1.50;99.90
7972;DHT22;4031;49.758;6.120;2022-12-19T09:38:56;1.50;99.90
7972;DHT22;4031;49.758;6.120;2022-12-19T09:44:22;1.50;99.90
7972;DHT22;4031;49.758;6.120;2022-12-19T09:47:11;1.60;99.90
7972;DHT22;4031;49.758;6.120;2022-12-19T09:49:40;1.70;99.90
7972;DHT22;4031;49.758;6.120;2022-12-19T09:52:34;1.70;99.90
7972;DHT22;4031;49.758;6.120;2022-12-19T09:55:16;1.80;99.90
7972;DHT22;4031;49.758;6.120;2022-12-19T10:00:42;1.90;99.90
7972;DHT22;4031;49.758;6.120;2022-12-19T10:03:40;1.90;99.90
7972;DHT22;4031;49.758;6.120;2022-12-19T10:06:20;2.00;99.90
7972;DHT22;4031;49.758;6.120;2022-12-19T10:08:50;2.10;99.90
7972;DHT22;4031;49.758;6.120;2022-12-19T10:11:24;2.10;99.90
7972;DHT22;4031;49.758;6.120;2022-12-19T10:14:21;2.10;99.90
7972;DHT22;4031;49.758;6.120;2022-12-19T10:23:27;2.50;99.90
7972;DHT22;4031;49.758;6.120;2022-12-19T10:26:18;2.60;99.90
7972;DHT22;4031;49.758;6.120;2022-12-19T10:31:36;2.70;99.90
7972;DHT22;4031;49.758;6.120;2022-12-19T10:34:19;2.80;99.90
7972;DHT22;4031;49.758;6.120;2022-12-19T10:36:51;2.90;99.90
7972;DHT22;4031;49.758;6.120;2022-12-19T10:39:49;3.00;99.90
7972;DHT22;4031;49.758;6.120;2022-12-19T10:45:18;3.30;99.90
7972;DHT22;4031;49.758;6.120;2022-12-19T10:47:46;3.40;99.90
7972;DHT22;4031;49.758;6.120;2022-12-19T10:50:21;3.50;99.90
7972;DHT22;4031;49.758;6.120;2022-12-19T10:58:27;3.80;99.90
7972;DHT22;4031;49.758;6.120;2022-12-19T11:03:41;4.00;99.90
7972;DHT22;4031;49.758;6.120;2022-12-19T11:09:21;4.20;99.90
7972;DHT22;4031;49.758;6.120;2022-12-19T11:12:10;4.40;99.90
7972;DHT22;4031;49.758;6.120;2022-12-19T11:14:41;4.50;99.90
7972;DHT22;4031;49.758;6.120;2022-12-19T11:19:57;4.70;99.90
7972;DHT22;4031;49.758;6.120;2022-12-19T11:22:25;4.80;99.90
7972;DHT22;4031;49.758;6.120;2022-12-19T11:24:54;4.80;99.90
7972;DHT22;4031;49.758;6.120;2022-12-19T11:27:36;4.80;99.90
7972;DHT22;4031;49.758;6.120;2022-12-19T11:30:26;4.90;99.90
7972;DHT22;4031;49.758;6.120;2022-12-19T11:33:15;5.00;99.90
7972;DHT22;4031;49.758;6.120;2022-12-19T11:35:48;5.20;99.90
7972;DHT22;4031;49.758;6.120;2022-12-19T11:38:31;5.30;99.90
7972;DHT22;4031;49.758;6.120;2022-12-19T11:41:32;5.20;99.90
7972;DHT22;4031;49.758;6.120;2022-12-19T11:46:51;5.10;99.90
7972;DHT22;4031;49.758;6.120;2022-12-19T11:49:42;5.10;99.90
7972;DHT22;4031;49.758;6.120;2022-12-19T11:52:41;5.00;99.90
7972;DHT22;4031;49.758;6.120;2022-12-19T11:55:27;4.90;99.90
7972;DHT22;4031;49.758;6.120;2022-12-19T11:57:57;4.90;99.90
7972;DHT22;4031;49.758;6.120;2022-12-19T12:00:24;4.90;99.90
7972;DHT22;4031;49.758;6.120;2022-12-19T12:05:45;5.00;99.90
7972;DHT22;4031;49.758;6.120;2022-12-19T12:27:12;4.60;99.90
7972;DHT22;4031;49.758;6.120;2022-12-19T12:30:08;4.50;99.90
7972;DHT22;4031;49.758;6.120;2022-12-19T12:33:18;4.60;99.90
7972;DHT22;4031;49.758;6.120;2022-12-19T12:35:59;4.60;99.90
7972;DHT22;4031;49.758;6.120;2022-12-19T12:38:46;4.60;99.90
7972;DHT22;4031;49.758;6.120;2022-12-19T12:44:54;4.50;99.90
7972;DHT22;4031;49.758;6.120;2022-12-19T12:47:25;4.50;99.90
7972;DHT22;4031;49.758;6.120;2022-12-19T12:50:01;4.50;99.90
7972;DHT22;4031;49.758;6.120;2022-12-19T12:55:17;4.50;99.90
7972;DHT22;4031;49.758;6.120;2022-12-19T12:57:51;4.70;99.90
7972;DHT22;4031;49.758;6.120;2022-12-19T13:00:28;4.70;99.90
7972;DHT22;4031;49.758;6.120;2022-12-19T13:03:14;4.80;99.90
7972;DHT22;4031;49.758;6.120;2022-12-19T13:06:02;4.80;99.90
7972;DHT22;4031;49.758;6.120;2022-12-19T13:14:04;4.80;99.90
7972;DHT22;4031;49.758;6.120;2022-12-19T13:19:15;4.90;99.90
7972;DHT22;4031;49.758;6.120;2022-12-19T13:38:40;4.70;99.90
7972;DHT22;4031;49.758;6.120;2022-12-19T13:41:01;4.70;99.90
7972;DHT22;4031;49.758;6.120;2022-12-19T13:43:54;4.70;99.90
7972;DHT22;4031;49.758;6.120;2022-12-19T13:46:43;4.70;99.90
7972;DHT22;4031;49.758;6.120;2022-12-19T13:49:19;4.70;99.90
7972;DHT22;4031;49.758;6.120;2022-12-19T13:51:56;4.60;99.90
7972;DHT22;4031;49.758;6.120;2022-12-19T13:54:30;4.50;99.90
7972;DHT22;4031;49.758;6.120;2022-12-19T13:57:00;4.40;99.90
7972;DHT22;4031;49.758;6.120;2022-12-19T13:59:28;4.40;99.90
7972;DHT22;4031;49.758;6.120;2022-12-19T14:02:06;4.30;99.90
7972;DHT22;4031;49.758;6.120;2022-12-19T14:04:38;4.20;99.90
7972;DHT22;4031;49.758;6.120;2022-12-19T14:07:14;4.20;99.90
7972;DHT22;4031;49.758;6.120;2022-12-19T14:09:51;4.10;99.90
7972;DHT22;4031;49.758;6.120;2022-12-19T14:12:29;4.00;99.90
7972;DHT22;4031;49.758;6.120;2022-12-19T14:15:29;4.00;99.90
7972;DHT22;4031;49.758;6.120;2022-12-19T14:18:21;3.90;99.90
7972;DHT22;4031;49.758;6.120;2022-12-19T14:20:47;3.80;99.90
7972;DHT22;4031;49.758;6.120;2022-12-19T14:23:14;3.70;99.90
7972;DHT22;4031;49.758;6.120;2022-12-19T14:25:53;3.60;99.90
7972;DHT22;4031;49.758;6.120;2022-12-19T14:29:21;3.50;99.90
7972;DHT22;4031;49.758;6.120;2022-12-19T14:31:29;3.50;99.90
7972;DHT22;4031;49.758;6.120;2022-12-19T14:33:57;3.30;99.90
7972;DHT22;4031;49.758;6.120;2022-12-19T14:36:26;3.20;99.90
7972;DHT22;4031;49.758;6.120;2022-12-19T14:38:54;3.10;99.90
7972;DHT22;4031;49.758;6.120;2022-12-19T14:44:11;3.00;99.90
7972;DHT22;4031;49.758;6.120;2022-12-19T14:46:38;3.00;99.90
7972;DHT22;4031;49.758;6.120;2022-12-19T14:49:24;2.90;99.90
7972;DHT22;4031;49.758;6.120;2022-12-19T14:51:51;2.80;99.90
7972;DHT22;4031;49.758;6.120;2022-12-19T14:54:20;2.80;99.90
7972;DHT22;4031;49.758;6.120;2022-12-19T14:56:58;2.80;99.90
7972;DHT22;4031;49.758;6.120;2022-12-19T14:59:35;2.70;99.90
7972;DHT22;4031;49.758;6.120;2022-12-19T15:04:46;2.70;99.90
7972;DHT22;4031;49.758;6.120;2022-12-19T15:07:43;2.70;99.90
7972;DHT22;4031;49.758;6.120;2022-12-19T15:16:32;2.60;99.90
7972;DHT22;4031;49.758;6.120;2022-12-19T15:18:54;2.50;99.90
7972;DHT22;4031;49.758;6.120;2022-12-19T15:21:22;2.50;99.90
7972;DHT22;4031;49.758;6.120;2022-12-19T15:23:48;2.40;99.90
7972;DHT22;4031;49.758;6.120;2022-12-19T15:26:25;2.30;99.90
7972;DHT22;4031;49.758;6.120;2022-12-19T15:28:56;2.30;99.90
7972;DHT22;4031;49.758;6.120;2022-12-19T15:31:39;2.20;99.90
7972;DHT22;4031;49.758;6.120;2022-12-19T15:34:19;2.10;99.90
7972;DHT22;4031;49.758;6.120;2022-12-19T15:36:56;2.10;99.90
7972;DHT22;4031;49.758;6.120;2022-12-19T15:39:23;2.00;99.90
7972;DHT22;4031;49.758;6.120;2022-12-19T15:41:52;1.90;99.90
7972;DHT22;4031;49.758;6.120;2022-12-19T15:44:32;1.90;99.90
7972;DHT22;4031;49.758;6.120;2022-12-19T15:47:00;1.90;99.90
7972;DHT22;4031;49.758;6.120;2022-12-19T15:49:26;1.80;99.90
7972;DHT22;4031;49.758;6.120;2022-12-19T15:51:52;1.80;99.90
7972;DHT22;4031;49.758;6.120;2022-12-19T15:54:18;1.80;99.90
7972;DHT22;4031;49.758;6.120;2022-12-19T15:56:47;1.70;99.90
7972;DHT22;4031;49.758;6.120;2022-12-19T15:59:22;1.70;99.90
7972;DHT22;4031;49.758;6.120;2022-12-19T16:02:00;1.70;99.90
7972;DHT22;4031;49.758;6.120;2022-12-19T16:04:26;1.80;99.90
7972;DHT22;4031;49.758;6.120;2022-12-19T16:06:52;1.70;99.90
7972;DHT22;4031;49.758;6.120;2022-12-19T16:09:24;1.70;99.90
7972;DHT22;4031;49.758;6.120;2022-12-19T16:11:53;1.70;99.90
7972;DHT22;4031;49.758;6.120;2022-12-19T16:14:20;1.70;99.90
7972;DHT22;4031;49.758;6.120;2022-12-19T16:16:51;1.80;99.90
7972;DHT22;4031;49.758;6.120;2022-12-19T16:19:26;1.80;99.90
7972;DHT22;4031;49.758;6.120;2022-12-19T16:21:54;2.20;99.90
7972;DHT22;4031;49.758;6.120;2022-12-19T16:24:22;2.40;99.90
7972;DHT22;4031;49.758;6.120;2022-12-19T16:26:53;3.10;99.90
7972;DHT22;4031;49.758;6.120;2022-12-19T16:29:25;3.80;99.90
7972;DHT22;4031;49.758;6.120;2022-12-19T16:31:53;4.40;99.90
7972;DHT22;4031;49.758;6.120;2022-12-19T16:34:21;4.90;99.90
7972;DHT22;4031;49.758;6.120;2022-12-19T16:36:48;5.10;99.90
7972;DHT22;4031;49.758;6.120;2022-12-19T16:39:15;5.00;99.90
7972;DHT22;4031;49.758;6.120;2022-12-19T16:41:42;4.90;99.90
7972;DHT22;4031;49.758;6.120;2022-12-19T16:44:20;4.60;99.90
7972;DHT22;4031;49.758;6.120;2022-12-19T16:46:48;4.40;99.90
7972;DHT22;4031;49.758;6.120;2022-12-19T16:49:20;4.30;99.90
7972;DHT22;4031;49.758;6.120;2022-12-19T16:51:50;4.40;99.90
7972;DHT22;4031;49.758;6.120;2022-12-19T16:54:16;4.60;99.90
7972;DHT22;4031;49.758;6.120;2022-12-19T16:56:46;4.50;99.90
7972;DHT22;4031;49.758;6.120;2022-12-19T16:59:26;4.30;99.90
7972;DHT22;4031;49.758;6.120;2022-12-19T17:01:56;4.30;99.90
7972;DHT22;4031;49.758;6.120;2022-12-19T17:04:23;4.40;99.90
7972;DHT22;4031;49.758;6.120;2022-12-19T17:06:51;4.50;99.90
7972;DHT22;4031;49.758;6.120;2022-12-19T17:09:20;4.90;99.90
7972;DHT22;4031;49.758;6.120;2022-12-19T17:11:50;5.00;99.90
7972;DHT22;4031;49.758;6.120;2022-12-19T17:14:20;5.00;99.90
7972;DHT22;4031;49.758;6.120;2022-12-19T17:16:48;4.80;99.90
7972;DHT22;4031;49.758;6.120;2022-12-19T17:19:34;4.70;99.90
7972;DHT22;4031;49.758;6.120;2022-12-19T17:22:01;4.60;99.90
7972;DHT22;4031;49.758;6.120;2022-12-19T17:24:27;4.60;99.90
7972;DHT22;4031;49.758;6.120;2022-12-19T17:26:53;4.60;99.90
7972;DHT22;4031;49.758;6.120;2022-12-19T17:29:19;4.50;99.90
7972;DHT22;4031;49.758;6.120;2022-12-19T17:31:44;4.50;99.90
7972;DHT22;4031;49.758;6.120;2022-12-19T17:34:16;4.50;99.90
7972;DHT22;4031;49.758;6.120;2022-12-19T17:36:50;4.40;99.90
7972;DHT22;4031;49.758;6.120;2022-12-19T17:39:21;4.50;99.90
7972;DHT22;4031;49.758;6.120;2022-12-19T17:41:49;4.40;99.90
7972;DHT22;4031;49.758;6.120;2022-12-19T17:44:16;4.40;99.90
7972;DHT22;4031;49.758;6.120;2022-12-19T17:46:44;4.40;99.90
7972;DHT22;4031;49.758;6.120;2022-12-19T17:49:24;4.50;99.90
7972;DHT22;4031;49.758;6.120;2022-12-19T17:51:52;4.40;99.90
7972;DHT22;4031;49.758;6.120;2022-12-19T17:54:19;4.30;99.90
7972;DHT22;4031;49.758;6.120;2022-12-19T17:56:46;4.20;99.90
7972;DHT22;4031;49.758;6.120;2022-12-19T17:59:13;4.10;99.90
7972;DHT22;4031;49.758;6.120;2022-12-19T18:01:39;4.30;99.90
7972;DHT22;4031;49.758;6.120;2022-12-19T18:04:12;4.60;99.90
7972;DHT22;4031;49.758;6.120;2022-12-19T18:06:39;4.70;99.90
7972;DHT22;4031;49.758;6.120;2022-12-19T18:09:15;4.80;99.90
7972;DHT22;4031;49.758;6.120;2022-12-19T18:11:45;4.90;99.90
7972;DHT22;4031;49.758;6.120;2022-12-19T18:14:12;4.70;99.90
7972;DHT22;4031;49.758;6.120;2022-12-19T18:16:38;4.60;99.90
7972;DHT22;4031;49.758;6.120;2022-12-19T18:19:04;4.50;99.90
7972;DHT22;4031;49.758;6.120;2022-12-19T18:21:30;4.50;99.90
7972;DHT22;4031;49.758;6.120;2022-12-19T18:23:56;4.80;99.90
7972;DHT22;4031;49.758;6.120;2022-12-19T18:26:22;4.80;99.90
7972;DHT22;4031;49.758;6.120;2022-12-19T18:28:48;4.70;99.90
7972;DHT22;4031;49.758;6.120;2022-12-19T18:31:20;4.70;99.90
7972;DHT22;4031;49.758;6.120;2022-12-19T18:33:50;4.60;99.90
7972;DHT22;4031;49.758;6.120;2022-12-19T18:36:20;4.40;99.90
7972;DHT22;4031;49.758;6.120;2022-12-19T18:38:47;4.30;99.90
7972;DHT22;4031;49.758;6.120;2022-12-19T18:41:14;4.30;99.90
7972;DHT22;4031;49.758;6.120;2022-12-19T18:43:41;4.40;99.90
7972;DHT22;4031;49.758;6.120;2022-12-19T18:46:15;4.60;99.90
7972;DHT22;4031;49.758;6.120;2022-12-19T18:48:43;4.80;99.90
7972;DHT22;4031;49.758;6.120;2022-12-19T18:51:17;5.40;99.90
7972;DHT22;4031;49.758;6.120;2022-12-19T18:53:45;5.50;99.90
7972;DHT22;4031;49.758;6.120;2022-12-19T18:56:11;5.20;99.90